Vunisea, Fiji
Current Conditions -  °F | °C
As of 6:00 AM on Sunday 26 Oct 2014 (Local Time) from NFNA Reporting Station
Rain Showers Rain Showers  
Wind Chill: 70°   Ceiling: 1800
Heat Index: 70°   Visibility: 6mi
Dew Point: 70°   Wind: 0mph
Humidity: 100%   Direction: NA
Pressure: 29.91"   Gusts: NA
Location:  19.05°S, 178.17°E
Report Text: NFNA 251800Z 00000KT 9999 -SHRA BKN018 BKN045 21/21 Q1013
Loading
Personal Weather Stations






























Interactive Weather Map
Tropical Storm Tracking
New forecast layout! Learn more

10-Day Weather Forecast

Advertisements
Track Severe Weather on mobile